createdAt,value
2018-05-18T00:00:57.725Z,15.63
2018-05-18T00:03:25.253Z,15.56
2018-05-18T00:05:52.755Z,15.54
2018-05-18T00:08:20.325Z,15.51
2018-05-18T00:10:47.871Z,15.53
2018-05-18T00:13:15.401Z,15.51
2018-05-18T00:15:42.927Z,15.46
2018-05-18T00:18:10.487Z,15.51
2018-05-18T00:20:38.023Z,15.45
2018-05-18T00:23:06.760Z,15.38
2018-05-18T00:25:34.345Z,15.36
2018-05-18T00:28:01.874Z,15.37
2018-05-18T00:30:29.623Z,15.41
2018-05-18T00:32:57.158Z,15.38
2018-05-18T00:35:24.657Z,15.31
2018-05-18T00:37:52.170Z,15.24
2018-05-18T00:40:20.016Z,15.22
2018-05-18T00:42:48.146Z,15.19
2018-05-18T00:45:15.652Z,15.20
2018-05-18T00:47:43.208Z,15.18
2018-05-18T00:50:10.733Z,15.12
2018-05-18T00:52:38.253Z,15.13
2018-05-18T00:55:17.601Z,15.07
2018-05-18T00:57:45.663Z,14.87
2018-05-18T01:00:13.294Z,14.87
2018-05-18T01:02:40.841Z,14.85
2018-05-18T01:05:08.356Z,14.87
2018-05-18T01:07:35.928Z,14.86
2018-05-18T01:10:03.504Z,14.88
2018-05-18T01:12:31.018Z,14.87
2018-05-18T01:14:58.520Z,14.76
2018-05-18T01:17:26.062Z,14.49
2018-05-18T01:19:53.590Z,14.49
2018-05-18T01:22:21.094Z,14.51
2018-05-18T01:24:48.981Z,14.62
2018-05-18T01:27:16.776Z,14.57
2018-05-18T01:29:44.289Z,14.58
2018-05-18T01:32:11.856Z,14.63
2018-05-18T01:34:39.484Z,14.50
2018-05-18T01:37:07.181Z,14.34
2018-05-18T01:39:34.786Z,14.29
2018-05-18T01:42:02.329Z,14.15
2018-05-18T01:44:30.118Z,14.12
2018-05-18T01:46:58.077Z,14.12
2018-05-18T01:49:25.680Z,14.17
2018-05-18T01:51:53.507Z,14.21
2018-05-18T01:54:21.045Z,14.24
2018-05-18T01:56:48.727Z,14.25
2018-05-18T01:59:16.237Z,14.30
2018-05-18T02:01:43.768Z,14.30
2018-05-18T02:04:11.307Z,14.24
2018-05-18T02:06:38.823Z,14.24
2018-05-18T02:09:06.448Z,14.25
2018-05-18T02:11:34.006Z,14.22
2018-05-18T02:14:01.551Z,14.23
2018-05-18T02:16:29.108Z,14.20
2018-05-18T02:18:56.642Z,14.17
2018-05-18T02:21:24.176Z,14.13
2018-05-18T02:23:52.020Z,14.13
2018-05-18T02:26:19.541Z,14.08
2018-05-18T02:28:47.300Z,14.09
2018-05-18T02:31:14.817Z,14.09
2018-05-18T02:33:43.058Z,14.12
2018-05-18T02:36:10.607Z,14.04
2018-05-18T02:38:38.144Z,13.94
2018-05-18T02:41:05.802Z,13.96
2018-05-18T02:43:33.342Z,13.88
2018-05-18T02:46:00.858Z,13.94
2018-05-18T02:48:28.406Z,13.94
2018-05-18T02:50:56.046Z,13.90
2018-05-18T02:53:23.862Z,13.87
2018-05-18T02:55:51.393Z,13.89
2018-05-18T02:58:18.934Z,13.92
2018-05-18T03:00:46.745Z,13.91
2018-05-18T03:03:14.312Z,13.93
2018-05-18T03:05:42.193Z,13.91
2018-05-18T03:08:09.890Z,13.89
2018-05-18T03:10:37.706Z,13.90
2018-05-18T03:13:05.678Z,13.76
2018-05-18T03:15:33.547Z,13.77
2018-05-18T03:18:01.070Z,13.77
2018-05-18T03:20:28.608Z,13.80
2018-05-18T03:22:56.129Z,13.81
2018-05-18T03:25:23.659Z,13.80
2018-05-18T03:27:51.206Z,13.79
2018-05-18T03:30:18.727Z,13.76
2018-05-18T03:32:46.229Z,13.68
2018-05-18T03:35:13.837Z,13.61
2018-05-18T03:37:41.347Z,13.63
2018-05-18T03:40:08.848Z,13.35
2018-05-18T03:42:36.389Z,13.40
2018-05-18T03:45:03.912Z,13.49
2018-05-18T03:47:31.427Z,13.49
2018-05-18T03:49:58.967Z,13.56
2018-05-18T03:52:26.493Z,13.57
2018-05-18T03:54:54.139Z,13.55
2018-05-18T03:57:21.696Z,13.64
2018-05-18T03:59:49.226Z,13.69
2018-05-18T04:02:28.680Z,13.66
2018-05-18T04:11:10.018Z,13.31
2018-05-18T04:13:37.556Z,13.34
2018-05-18T04:16:05.077Z,13.32
2018-05-18T04:18:32.602Z,13.14
2018-05-18T04:21:00.162Z,13.19
2018-05-18T04:23:27.679Z,13.31
2018-05-18T04:25:55.480Z,13.31
2018-05-18T04:28:23.353Z,13.37
2018-05-18T04:30:50.905Z,13.48
2018-05-18T04:33:18.438Z,13.60
2018-05-18T04:35:45.972Z,13.59
2018-05-18T04:38:13.589Z,13.63
2018-05-18T04:40:41.125Z,13.74
2018-05-18T04:43:08.792Z,13.81
2018-05-18T04:45:36.363Z,13.83
2018-05-18T04:48:03.904Z,13.91
2018-05-18T04:50:31.525Z,13.95
2018-05-18T04:52:59.072Z,13.91
2018-05-18T04:55:26.821Z,13.96
2018-05-18T04:57:54.347Z,14.05
2018-05-18T05:00:21.861Z,14.02
2018-05-18T05:02:49.374Z,13.90
2018-05-18T05:05:16.928Z,14.00
2018-05-18T05:07:44.487Z,14.07
2018-05-18T05:10:11.992Z,14.09
2018-05-18T05:12:39.847Z,14.14
2018-05-18T05:15:07.392Z,14.21
2018-05-18T05:17:34.903Z,14.29
2018-05-18T05:20:02.448Z,14.23
2018-05-18T05:22:29.975Z,14.07
2018-05-18T05:24:57.498Z,14.17
2018-05-18T05:27:25.051Z,14.29
2018-05-18T05:29:52.549Z,14.24
2018-05-18T05:32:20.075Z,14.35
2018-05-18T05:34:47.599Z,14.30
2018-05-18T05:37:15.123Z,14.38
2018-05-18T05:39:42.638Z,14.41
2018-05-18T05:42:10.240Z,14.16
2018-05-18T05:44:38.026Z,14.33
2018-05-18T05:47:05.545Z,14.43
2018-05-18T05:49:33.252Z,14.16
2018-05-18T05:52:01.001Z,14.33
2018-05-18T05:54:28.551Z,14.17
2018-05-18T05:56:56.100Z,13.92
2018-05-18T05:59:23.638Z,14.06
2018-05-18T06:01:51.348Z,14.11
2018-05-18T06:04:19.553Z,14.29
2018-05-18T06:06:47.072Z,14.37
2018-05-18T06:09:14.597Z,14.56
2018-05-18T06:11:42.494Z,14.68
2018-05-18T06:14:10.040Z,14.73
2018-05-18T06:16:37.589Z,14.83
2018-05-18T06:19:05.131Z,14.85
2018-05-18T06:21:32.663Z,14.74
2018-05-18T06:24:00.239Z,14.80
2018-05-18T06:26:28.157Z,14.71
2018-05-18T06:28:55.926Z,14.75
2018-05-18T06:31:23.482Z,14.79
2018-05-18T06:33:51.039Z,14.85
2018-05-18T06:36:18.604Z,14.87
2018-05-18T06:38:46.169Z,14.87
2018-05-18T06:41:14.882Z,14.97
2018-05-18T06:43:42.495Z,14.94
2018-05-18T06:46:10.001Z,15.00
2018-05-18T06:48:37.568Z,14.98
2018-05-18T06:51:05.099Z,15.00
2018-05-18T06:53:32.619Z,15.06
2018-05-18T06:56:00.886Z,14.99
2018-05-18T06:58:28.381Z,14.54
2018-05-18T07:00:55.893Z,14.74
2018-05-18T07:03:23.460Z,14.66
2018-05-18T07:05:50.991Z,14.67
2018-05-18T07:08:18.518Z,14.84
2018-05-18T07:10:46.146Z,14.90
2018-05-18T07:13:13.675Z,15.05
2018-05-18T07:15:41.194Z,14.83
2018-05-18T07:18:08.742Z,14.93
2018-05-18T07:20:36.253Z,15.04
2018-05-18T07:23:03.867Z,14.63
2018-05-18T07:25:31.804Z,14.38
2018-05-18T07:27:59.312Z,14.50
2018-05-18T07:30:27.147Z,14.72
2018-05-18T07:32:54.709Z,14.88
2018-05-18T07:35:22.318Z,15.17
2018-05-18T07:37:49.950Z,15.41
2018-05-18T07:40:17.517Z,15.57
2018-05-18T07:42:45.046Z,14.94
2018-05-18T07:45:12.574Z,14.95
2018-05-18T07:47:40.126Z,14.98
2018-05-18T07:50:07.774Z,15.26
2018-05-18T07:52:35.252Z,15.32
2018-05-18T07:55:03.109Z,15.37
2018-05-18T07:57:30.759Z,15.39
2018-05-18T07:59:59.210Z,15.25
2018-05-18T08:02:27.407Z,15.43
2018-05-18T08:04:54.928Z,15.36
2018-05-18T08:07:22.651Z,14.68
2018-05-18T08:09:50.211Z,14.41
2018-05-18T08:12:18.051Z,14.46
2018-05-18T08:14:45.573Z,14.80
2018-05-18T08:17:13.144Z,14.93
2018-05-18T08:19:40.669Z,15.68
2018-05-18T08:22:08.342Z,16.16
2018-05-18T08:24:36.003Z,15.84
2018-05-18T08:27:15.257Z,16.08
2018-05-18T08:29:43.033Z,16.27
2018-05-18T08:32:10.693Z,16.44
2018-05-18T08:34:38.233Z,15.72
2018-05-18T08:37:06.786Z,15.85
2018-05-18T08:39:34.316Z,15.99
2018-05-18T08:42:01.950Z,15.30
2018-05-18T08:44:29.943Z,15.07
2018-05-18T08:46:57.631Z,14.96
2018-05-18T08:49:25.195Z,15.25
2018-05-18T08:51:52.761Z,15.49
2018-05-18T08:54:20.317Z,15.45
2018-05-18T08:56:47.850Z,14.83
2018-05-18T08:59:15.444Z,14.86
2018-05-18T09:01:42.987Z,15.06
2018-05-18T09:04:10.490Z,15.13
2018-05-18T09:06:38.113Z,14.87
2018-05-18T09:09:06.368Z,15.06
2018-05-18T09:11:34.087Z,15.24
2018-05-18T09:14:01.699Z,15.10
2018-05-18T09:16:29.207Z,15.44
2018-05-18T09:18:56.729Z,15.46
2018-05-18T09:21:24.418Z,15.18
2018-05-18T09:23:51.933Z,15.39
2018-05-18T09:26:19.530Z,15.63
2018-05-18T09:28:47.026Z,15.80
2018-05-18T09:31:14.552Z,15.96
2018-05-18T09:33:42.082Z,16.11
2018-05-18T09:36:09.844Z,15.45
2018-05-18T09:38:37.333Z,15.67
2018-05-18T09:41:05.001Z,15.90
2018-05-18T09:43:32.553Z,16.04
2018-05-18T09:46:00.071Z,16.05
2018-05-18T09:48:27.596Z,15.75
2018-05-18T09:50:55.157Z,15.83
2018-05-18T09:53:22.665Z,15.82
2018-05-18T09:55:50.172Z,15.10
2018-05-18T09:58:17.708Z,15.03
2018-05-18T10:00:45.252Z,15.02
2018-05-18T10:03:12.753Z,15.30
2018-05-18T10:05:41.101Z,15.29
2018-05-18T10:08:08.873Z,15.61
2018-05-18T10:10:36.393Z,15.55
2018-05-18T10:13:03.936Z,15.77
2018-05-18T10:15:31.820Z,16.02
2018-05-18T10:17:59.376Z,16.06
2018-05-18T10:20:26.933Z,16.11
2018-05-18T10:22:54.528Z,16.26
2018-05-18T10:25:26.011Z,15.76
2018-05-18T10:27:53.527Z,15.25
2018-05-18T10:30:29.179Z,15.28
2018-05-18T10:32:56.713Z,15.39
2018-05-18T10:35:24.233Z,15.69
2018-05-18T10:37:51.762Z,15.80
2018-05-18T10:40:19.302Z,16.12
2018-05-18T10:42:46.816Z,16.35
2018-05-18T10:45:14.416Z,16.21
2018-05-18T10:47:41.967Z,15.94
2018-05-18T10:50:09.508Z,16.14
2018-05-18T10:52:37.251Z,16.37
2018-05-18T10:55:04.785Z,15.90
2018-05-18T10:57:32.314Z,15.83
2018-05-18T11:00:00.023Z,15.97
2018-05-18T11:02:27.567Z,16.34
2018-05-18T11:04:55.142Z,16.30
2018-05-18T11:07:22.976Z,16.65
2018-05-18T11:09:50.514Z,16.48
2018-05-18T11:12:18.025Z,16.04
2018-05-18T11:14:45.566Z,15.82
2018-05-18T11:17:13.428Z,16.08
2018-05-18T11:19:41.417Z,16.16
2018-05-18T11:22:09.881Z,16.42
2018-05-18T11:24:37.408Z,16.55
2018-05-18T11:27:04.915Z,16.53
2018-05-18T11:29:32.482Z,16.49
2018-05-18T11:32:00.100Z,16.61
2018-05-18T11:34:28.011Z,16.71
2018-05-18T11:36:55.588Z,16.30
2018-05-18T11:39:23.092Z,15.65
2018-05-18T11:41:51.560Z,15.86
2018-05-18T11:44:19.153Z,15.88
2018-05-18T11:46:46.818Z,16.03
2018-05-18T11:49:14.337Z,16.31
2018-05-18T11:51:41.866Z,16.50
2018-05-18T11:54:09.380Z,16.30
2018-05-18T11:56:36.916Z,16.33
2018-05-18T11:59:04.459Z,16.43
2018-05-18T12:01:31.991Z,16.54
2018-05-18T12:03:59.743Z,16.66
2018-05-18T12:06:27.297Z,16.77
2018-05-18T12:08:54.817Z,16.41
2018-05-18T12:11:23.093Z,16.05
2018-05-18T12:13:50.630Z,16.12
2018-05-18T12:16:18.140Z,15.48
2018-05-18T12:18:45.668Z,15.30
2018-05-18T12:21:13.206Z,15.83
2018-05-18T12:23:40.964Z,15.88
2018-05-18T12:26:08.539Z,16.41
2018-05-18T12:28:36.990Z,16.63
2018-05-18T12:31:04.503Z,16.84
2018-05-18T12:33:32.026Z,16.96
2018-05-18T12:35:59.893Z,16.98
2018-05-18T12:38:27.434Z,17.04
2018-05-18T12:40:55.064Z,16.99
2018-05-18T12:43:22.665Z,16.86
2018-05-18T12:45:50.190Z,16.84
2018-05-18T12:48:17.773Z,16.87
2018-05-18T12:50:45.657Z,16.41
2018-05-18T12:53:13.798Z,16.55
2018-05-18T12:55:41.348Z,16.66
2018-05-18T12:58:08.885Z,16.71
2018-05-18T13:00:36.480Z,16.56
2018-05-18T13:03:04.011Z,16.66
2018-05-18T13:05:31.592Z,16.71
2018-05-18T13:07:59.104Z,16.76
2018-05-18T13:10:26.633Z,16.78
2018-05-18T13:12:54.177Z,16.65
2018-05-18T13:15:21.721Z,16.35
2018-05-18T13:17:49.257Z,16.21
2018-05-18T13:20:16.796Z,15.86
2018-05-18T13:22:44.303Z,15.95
2018-05-18T13:25:11.822Z,15.90
2018-05-18T13:27:40.147Z,15.96
2018-05-18T13:30:08.084Z,15.98
2018-05-18T13:32:35.945Z,15.43
2018-05-18T13:35:04.379Z,15.58
2018-05-18T13:37:31.891Z,15.65
2018-05-18T13:39:59.428Z,15.80
2018-05-18T13:42:26.953Z,16.03
2018-05-18T13:44:54.609Z,15.92
2018-05-18T13:47:21.973Z,15.92
2018-05-18T13:49:49.547Z,16.05
2018-05-18T13:52:17.126Z,16.17
2018-05-18T13:54:45.340Z,16.19
2018-05-18T13:57:12.913Z,16.30
2018-05-18T13:59:40.408Z,16.24
2018-05-18T14:02:07.921Z,16.36
2018-05-18T14:04:35.458Z,16.42
2018-05-18T14:07:02.987Z,16.26
2018-05-18T14:09:30.772Z,16.21
2018-05-18T14:11:58.640Z,16.29
2018-05-18T14:14:27.024Z,16.30
2018-05-18T14:16:54.591Z,16.11
2018-05-18T14:19:22.423Z,16.05
2018-05-18T14:21:49.959Z,16.25
2018-05-18T14:24:17.482Z,16.37
2018-05-18T14:26:45.074Z,16.13
2018-05-18T14:29:12.600Z,16.23
2018-05-18T14:31:40.114Z,16.37
2018-05-18T14:34:07.692Z,16.30
2018-05-18T14:36:35.284Z,16.23
2018-05-18T14:39:02.887Z,16.14
2018-05-18T14:41:30.449Z,16.02
2018-05-18T14:43:58.468Z,15.99
2018-05-18T14:46:25.907Z,16.09
2018-05-18T14:48:53.438Z,16.16
2018-05-18T14:51:20.995Z,16.12
2018-05-18T14:53:48.521Z,16.12
2018-05-18T14:56:16.301Z,15.90
2018-05-18T14:58:43.845Z,15.78
2018-05-18T15:01:11.362Z,15.83
2018-05-18T15:03:38.920Z,15.47
2018-05-18T15:06:06.443Z,15.45
2018-05-18T15:08:33.955Z,15.68
2018-05-18T15:11:01.538Z,15.86
2018-05-18T15:13:29.045Z,15.77
2018-05-18T15:15:56.583Z,15.69
2018-05-18T15:18:24.366Z,15.60
2018-05-18T15:20:51.961Z,15.70
2018-05-18T15:23:19.544Z,15.81
2018-05-18T15:25:47.107Z,15.78
2018-05-18T15:28:14.648Z,15.47
2018-05-18T15:30:42.163Z,15.63
2018-05-18T15:33:09.735Z,15.73
2018-05-18T15:35:37.271Z,15.76
2018-05-18T15:38:04.967Z,15.84
2018-05-18T15:40:32.564Z,15.91
2018-05-18T15:43:00.082Z,15.62
2018-05-18T15:45:27.626Z,15.55
2018-05-18T15:47:55.454Z,15.65
2018-05-18T15:50:22.967Z,15.69
2018-05-18T15:52:50.793Z,15.63
2018-05-18T15:55:18.353Z,15.76
2018-05-18T15:57:45.865Z,15.59
2018-05-18T16:00:13.526Z,15.69
2018-05-18T16:02:41.451Z,15.77
2018-05-18T16:05:09.053Z,15.75
2018-05-18T16:07:37.658Z,15.69
2018-05-18T16:10:05.227Z,15.51
2018-05-18T16:12:33.069Z,15.43
2018-05-18T16:15:00.626Z,15.49
2018-05-18T16:17:28.290Z,15.59
2018-05-18T16:19:55.818Z,15.53
2018-05-18T16:22:23.657Z,15.59
2018-05-18T16:24:51.295Z,15.65
2018-05-18T16:27:18.798Z,15.66
2018-05-18T16:29:46.326Z,15.67
2018-05-18T16:32:13.915Z,15.67
2018-05-18T16:34:42.242Z,15.59
2018-05-18T16:37:09.777Z,15.64
2018-05-18T16:39:37.326Z,15.56
2018-05-18T16:42:04.846Z,15.47
2018-05-18T16:44:32.549Z,15.47
2018-05-18T16:47:00.084Z,15.42
2018-05-18T16:49:27.593Z,15.41
2018-05-18T16:51:55.127Z,15.36
2018-05-18T16:54:22.681Z,15.39
2018-05-18T16:56:50.193Z,15.39
2018-05-18T16:59:17.713Z,15.46
2018-05-18T17:01:45.467Z,15.48
2018-05-18T17:04:13.094Z,15.44
2018-05-18T17:06:40.613Z,15.20
2018-05-18T17:09:08.357Z,15.08
2018-05-18T17:11:35.895Z,15.06
2018-05-18T17:14:04.234Z,15.00
2018-05-18T17:16:32.047Z,15.08
2018-05-18T17:18:59.573Z,15.13
2018-05-18T17:21:27.241Z,15.07
2018-05-18T17:23:54.871Z,15.04
2018-05-18T17:26:22.427Z,15.03
2018-05-18T17:28:50.032Z,14.87
2018-05-18T17:31:17.598Z,14.91
2018-05-18T17:33:45.139Z,14.87
2018-05-18T17:36:12.807Z,14.80
2018-05-18T17:38:40.395Z,14.71
2018-05-18T17:41:07.957Z,14.81
2018-05-18T17:43:35.474Z,14.90
2018-05-18T17:46:03.333Z,14.72
2018-05-18T17:48:30.853Z,14.38
2018-05-18T17:50:58.823Z,14.43
2018-05-18T17:53:26.402Z,14.44
2018-05-18T17:55:54.048Z,14.54
2018-05-18T17:58:21.561Z,14.61
2018-05-18T18:00:49.160Z,14.73
2018-05-18T18:03:16.878Z,14.74
2018-05-18T18:05:44.478Z,14.83
2018-05-18T18:08:12.019Z,14.73
2018-05-18T18:10:39.549Z,14.75
2018-05-18T18:13:07.076Z,14.81
2018-05-18T18:15:34.604Z,14.84
2018-05-18T18:18:02.184Z,14.82
2018-05-18T18:20:29.693Z,14.87
2018-05-18T18:22:57.376Z,14.92
2018-05-18T18:25:25.189Z,14.98
2018-05-18T18:27:52.760Z,14.90
2018-05-18T18:30:20.433Z,14.86
2018-05-18T18:32:48.285Z,14.87
2018-05-18T18:35:15.865Z,14.93
2018-05-18T18:37:43.570Z,14.93
2018-05-18T18:40:11.086Z,14.95
2018-05-18T18:42:38.618Z,14.95
2018-05-18T18:45:06.177Z,14.93
2018-05-18T18:47:34.675Z,14.91
2018-05-18T18:50:02.530Z,14.91
2018-05-18T18:52:30.391Z,14.81
2018-05-18T18:54:58.931Z,14.81
2018-05-18T18:57:26.569Z,14.79
2018-05-18T18:59:54.508Z,14.59
2018-05-18T19:02:22.320Z,14.52
2018-05-18T19:04:49.916Z,14.59
2018-05-18T19:07:17.540Z,14.68
2018-05-18T19:09:45.081Z,14.67
2018-05-18T19:12:12.691Z,14.70
2018-05-18T19:14:41.349Z,14.69
2018-05-18T19:17:08.915Z,14.70
2018-05-18T19:19:36.436Z,14.73
2018-05-18T19:22:03.975Z,14.65
2018-05-18T19:24:31.985Z,14.56
2018-05-18T19:26:59.557Z,14.56
2018-05-18T19:29:27.126Z,14.38
2018-05-18T19:31:54.646Z,14.50
2018-05-18T19:34:22.180Z,14.54
2018-05-18T19:36:49.755Z,14.38
2018-05-18T19:39:17.268Z,14.28
2018-05-18T19:41:44.796Z,14.17
2018-05-18T19:44:12.887Z,14.27
2018-05-18T19:46:40.457Z,14.34
2018-05-18T19:49:08.050Z,14.29
2018-05-18T19:51:35.802Z,14.33
2018-05-18T19:54:03.337Z,14.40
2018-05-18T19:56:30.944Z,14.43
2018-05-18T19:58:58.483Z,14.46
2018-05-18T20:01:26.875Z,14.47
2018-05-18T20:03:54.411Z,14.38
2018-05-18T20:06:21.980Z,14.37
2018-05-18T20:08:49.973Z,14.40
2018-05-18T20:11:17.513Z,14.28
2018-05-18T20:13:45.093Z,14.31
2018-05-18T20:16:12.621Z,14.26
2018-05-18T20:18:40.201Z,13.99
2018-05-18T20:21:07.766Z,14.05
2018-05-18T20:23:35.407Z,13.92
2018-05-18T20:26:02.929Z,13.86
2018-05-18T20:28:30.494Z,13.76
2018-05-18T20:30:58.040Z,13.80
2018-05-18T20:33:25.570Z,13.87
2018-05-18T20:35:53.136Z,13.93
2018-05-18T20:38:21.033Z,13.89
2018-05-18T20:40:48.607Z,13.84
2018-05-18T20:43:16.451Z,13.97
2018-05-18T20:45:44.713Z,14.02
2018-05-18T20:48:12.310Z,14.01
2018-05-18T20:50:41.027Z,14.11
2018-05-18T20:53:08.532Z,14.20
2018-05-18T20:55:36.247Z,14.26
2018-05-18T20:58:04.015Z,14.12
2018-05-18T21:00:31.995Z,14.18
2018-05-18T21:02:59.769Z,14.17
2018-05-18T21:05:27.390Z,14.06
2018-05-18T21:07:55.158Z,13.91
2018-05-18T21:10:22.774Z,13.95
2018-05-18T21:12:50.341Z,13.99
2018-05-18T21:15:18.330Z,14.07
2018-05-18T21:17:45.850Z,14.07
2018-05-18T21:20:13.416Z,14.12
2018-05-18T21:22:41.036Z,14.16
2018-05-18T21:25:08.896Z,14.23
2018-05-18T21:27:36.424Z,14.29
2018-05-18T21:30:04.001Z,14.33
2018-05-18T21:32:31.580Z,14.35
2018-05-18T21:34:59.433Z,14.37
2018-05-18T21:37:26.993Z,14.36
2018-05-18T21:39:54.508Z,14.25
2018-05-18T21:42:22.059Z,14.28
2018-05-18T21:44:49.611Z,14.12
2018-05-18T21:47:17.119Z,14.17
2018-05-18T21:49:44.661Z,14.21
2018-05-18T21:52:12.198Z,14.19
2018-05-18T21:54:40.035Z,14.14
2018-05-18T21:57:07.569Z,14.16
2018-05-18T21:59:35.740Z,14.22
2018-05-18T22:02:03.803Z,14.29
2018-05-18T22:04:31.367Z,14.29
2018-05-18T22:06:58.888Z,14.28
2018-05-18T22:09:26.440Z,14.31
2018-05-18T22:11:53.994Z,14.34
2018-05-18T22:14:21.544Z,14.37
2018-05-18T22:16:49.038Z,14.39
2018-05-18T22:19:16.588Z,14.37
2018-05-18T22:21:44.416Z,14.38
2018-05-18T22:24:12.056Z,14.35
2018-05-18T22:26:39.594Z,14.34
2018-05-18T22:29:07.123Z,14.32
2018-05-18T22:31:34.651Z,14.23
2018-05-18T22:34:02.200Z,14.11
2018-05-18T22:36:29.733Z,14.09
2018-05-18T22:38:57.278Z,14.00
2018-05-18T22:41:24.840Z,13.78
2018-05-18T22:43:52.347Z,13.82
2018-05-18T22:46:19.873Z,13.83
2018-05-18T22:48:47.470Z,13.85
2018-05-18T22:51:16.288Z,13.84
2018-05-18T22:53:43.801Z,13.90
2018-05-18T22:56:11.343Z,13.99
2018-05-18T22:58:38.868Z,14.04
2018-05-18T23:01:06.390Z,14.02
2018-05-18T23:03:33.923Z,13.97
2018-05-18T23:06:01.463Z,13.74
2018-05-18T23:08:28.965Z,13.75
2018-05-18T23:10:56.515Z,13.85
2018-05-18T23:13:24.019Z,13.83
2018-05-18T23:15:51.533Z,13.81
2018-05-18T23:18:19.444Z,13.83
2018-05-18T23:20:46.971Z,13.88
2018-05-18T23:23:14.775Z,13.90
2018-05-18T23:25:42.565Z,13.70
2018-05-18T23:28:10.088Z,13.63
2018-05-18T23:30:37.605Z,13.45
2018-05-18T23:33:05.192Z,13.45
2018-05-18T23:35:32.740Z,13.53
2018-05-18T23:38:00.543Z,13.52
2018-05-18T23:40:28.100Z,13.42
2018-05-18T23:42:55.629Z,13.19
2018-05-18T23:45:23.461Z,13.17
2018-05-18T23:47:51.057Z,13.23
2018-05-18T23:50:18.581Z,13.36
2018-05-18T23:52:46.126Z,13.39
2018-05-18T23:55:13.691Z,13.36
2018-05-18T23:57:41.234Z,13.30
